Time;durP1;ratioP1;P1;durP2;ratioP2;P2;SDS_P1;SDS_P2;PMS_P1;PMS_P2;Temp;Humidity;BMP_temperature;BMP_pressure;BME280_temperature;BME280_humidity;BME280_pressure;Samples;Min_cycle;Max_cycle;Signal;HPM_P1;HPM_P2
2023/06/08 00:00:12;;;;;;;15.20;13.80;;;20.70;99.90;;;;;;4955196;28;20787;-59
2023/06/08 00:02:39;;;;;;;15.20;13.80;;;20.60;99.90;;;;;;4955583;28;20487;-59
2023/06/08 00:05:07;;;;;;;15.07;13.87;;;20.60;99.90;;;;;;4955735;28;20424;-59
2023/06/08 00:07:34;;;;;;;14.90;13.70;;;20.60;99.90;;;;;;4955278;28;20836;-59
2023/06/08 00:10:00;;;;;;;16.70;14.70;;;20.60;99.90;;;;;;4953765;28;20983;-59
2023/06/08 00:12:27;;;;;;;16.50;14.97;;;20.50;99.90;;;;;;4955985;29;20424;-59
2023/06/08 00:14:53;;;;;;;15.17;13.93;;;20.50;99.90;;;;;;4955550;28;20625;-59
2023/06/08 00:17:18;;;;;;;14.00;12.80;;;20.50;99.90;;;;;;4953725;29;20444;-59
2023/06/08 00:19:44;;;;;;;14.00;12.80;;;20.40;99.90;;;;;;4955773;29;20173;-59
2023/06/08 00:22:12;;;;;;;14.37;13.17;;;20.40;99.90;;;;;;4954502;28;20185;-59
2023/06/08 00:24:38;;;;;;;14.83;13.33;;;20.40;99.90;;;;;;4955798;28;20169;-59
2023/06/08 00:27:05;;;;;;;16.07;14.43;;;20.30;99.90;;;;;;4955080;28;20448;-59
2023/06/08 00:29:32;;;;;;;16.83;13.87;;;20.30;99.90;;;;;;4955661;28;20794;-59
2023/06/08 00:31:58;;;;;;;16.80;13.40;;;20.30;99.90;;;;;;4954409;28;20429;-59
2023/06/08 00:34:25;;;;;;;14.87;13.57;;;20.30;99.90;;;;;;4955282;29;20449;-59
2023/06/08 00:36:51;;;;;;;15.80;14.20;;;20.20;99.90;;;;;;4955140;28;20920;-59
2023/06/08 00:39:17;;;;;;;15.40;13.80;;;20.20;99.90;;;;;;4955068;29;20409;-59
2023/06/08 00:41:43;;;;;;;15.13;13.60;;;20.20;99.90;;;;;;4954774;28;20184;-59
2023/06/08 00:44:09;;;;;;;15.60;13.73;;;20.20;99.90;;;;;;4954790;28;20259;-59
2023/06/08 00:46:36;;;;;;;15.37;13.87;;;20.20;99.90;;;;;;4953902;28;20468;-59
2023/06/08 00:49:02;;;;;;;14.50;13.20;;;20.20;99.90;;;;;;4954739;28;20747;-59
2023/06/08 00:51:38;;;;;;;15.53;14.13;;;20.10;99.90;;;;;;4955212;28;20437;-59
2023/06/08 00:54:05;;;;;;;15.17;13.87;;;20.10;99.90;;;;;;4953710;28;20544;-59
2023/06/08 00:56:32;;;;;;;15.13;13.83;;;20.00;99.90;;;;;;4955061;29;20444;-59
2023/06/08 00:59:02;;;;;;;16.03;14.50;;;20.00;99.90;;;;;;4953797;29;20818;-59
2023/06/08 01:01:31;;;;;;;15.57;14.00;;;19.90;99.90;;;;;;4955065;28;20405;-59
2023/06/08 01:04:05;;;;;;;15.70;14.30;;;19.90;99.90;;;;;;4955021;28;20460;-59
2023/06/08 01:06:36;;;;;;;16.53;13.87;;;19.90;99.90;;;;;;4954547;28;20437;-59
2023/06/08 01:09:11;;;;;;;15.63;14.20;;;19.80;99.90;;;;;;4954387;28;20476;-59
2023/06/08 01:11:51;;;;;;;15.43;13.83;;;19.80;99.90;;;;;;4954041;28;20437;-60
2023/06/08 01:14:44;;;;;;;15.77;13.63;;;19.70;99.90;;;;;;4952347;29;20531;-59
2023/06/08 01:17:14;;;;;;;16.50;14.97;;;19.70;99.90;;;;;;4953537;28;20467;-59
2023/06/08 01:20:06;;;;;;;15.20;13.83;;;19.60;99.90;;;;;;4954848;28;20508;-59
2023/06/08 01:23:10;;;;;;;15.27;13.80;;;19.60;99.90;;;;;;4954066;28;20443;-59
2023/06/08 01:25:38;;;;;;;15.47;13.90;;;19.60;99.90;;;;;;4955141;29;20389;-59
2023/06/08 01:28:13;;;;;;;14.20;12.90;;;19.60;99.90;;;;;;4954141;28;20476;-59
2023/06/08 01:30:39;;;;;;;16.03;14.43;;;19.50;99.90;;;;;;4954209;29;20436;-60
2023/06/08 01:33:06;;;;;;;15.03;13.57;;;19.50;99.90;;;;;;4954102;28;20456;-59
2023/06/08 01:35:32;;;;;;;14.70;13.40;;;19.50;99.90;;;;;;4954579;28;20431;-59
2023/06/08 01:38:24;;;;;;;18.27;13.97;;;19.50;99.90;;;;;;4953712;28;20425;-59
2023/06/08 01:40:55;;;;;;;15.83;14.23;;;19.40;99.90;;;;;;4935533;29;20196;-59
2023/06/08 01:43:23;;;;;;;14.97;13.17;;;19.40;99.90;;;;;;4954231;29;20479;-59
2023/06/08 01:45:56;;;;;;;14.87;13.50;;;19.30;99.90;;;;;;4953526;28;20425;-59
2023/06/08 01:48:24;;;;;;;15.20;13.70;;;19.30;99.90;;;;;;4953445;28;20983;-59
2023/06/08 01:50:51;;;;;;;14.37;13.00;;;19.20;99.90;;;;;;4954849;28;20415;-59
2023/06/08 01:53:17;;;;;;;14.40;13.03;;;19.20;99.90;;;;;;4957207;28;20502;-59
2023/06/08 01:55:47;;;;;;;15.07;13.20;;;19.20;99.90;;;;;;4957591;28;20433;-59
2023/06/08 01:58:14;;;;;;;14.07;12.00;;;19.20;99.90;;;;;;4955242;28;20195;-59
2023/06/08 02:00:39;;;;;;;13.97;12.50;;;19.20;99.90;;;;;;4958266;29;20411;-59
2023/06/08 02:03:05;;;;;;;15.80;12.50;;;19.10;99.90;;;;;;4957677;28;20416;-59
2023/06/08 02:05:31;;;;;;;14.30;12.80;;;19.10;99.90;;;;;;4958273;29;20180;-59
2023/06/08 02:07:56;;;;;;;17.47;13.17;;;19.10;99.90;;;;;;4958424;28;20209;-59
2023/06/08 02:10:23;;;;;;;14.30;12.80;;;19.00;99.90;;;;;;4957510;28;20209;-59
2023/06/08 02:12:48;;;;;;;14.13;12.63;;;19.00;99.90;;;;;;4957658;28;20200;-59
2023/06/08 02:15:15;;;;;;;14.13;12.73;;;18.90;99.90;;;;;;4956898;28;20440;-59
2023/06/08 02:17:42;;;;;;;14.43;13.13;;;18.90;99.90;;;;;;4956350;28;20185;-59
2023/06/08 02:20:09;;;;;;;15.33;13.00;;;19.00;99.90;;;;;;4937920;29;20409;-59
2023/06/08 02:22:36;;;;;;;14.57;13.20;;;18.90;99.90;;;;;;4938593;29;20422;-59
2023/06/08 02:25:07;;;;;;;14.90;13.40;;;18.90;99.90;;;;;;4940744;29;20449;-59
2023/06/08 02:27:43;;;;;;;15.43;13.00;;;18.80;99.90;;;;;;4957469;29;20892;-59
2023/06/08 02:30:11;;;;;;;13.90;12.50;;;18.70;99.90;;;;;;4956971;28;20395;-59
2023/06/08 02:32:37;;;;;;;16.30;13.93;;;18.70;99.90;;;;;;4957623;28;20441;-59
2023/06/08 02:35:04;;;;;;;14.37;12.97;;;18.60;99.90;;;;;;4957603;29;20789;-59
2023/06/08 02:37:33;;;;;;;14.77;13.37;;;18.60;99.90;;;;;;4957585;28;20479;-59
2023/06/08 02:40:00;;;;;;;12.50;11.37;;;18.60;99.90;;;;;;4956647;28;20999;-59
2023/06/08 02:42:26;;;;;;;13.97;12.67;;;18.60;99.90;;;;;;4957098;28;20421;-59
2023/06/08 02:44:52;;;;;;;13.13;11.93;;;18.50;99.90;;;;;;4957082;28;20455;-60
2023/06/08 02:47:19;;;;;;;14.33;12.63;;;18.50;99.90;;;;;;4955347;29;20228;-59
2023/06/08 02:49:45;;;;;;;14.13;12.83;;;18.50;99.90;;;;;;4957426;28;20176;-59
2023/06/08 02:52:10;;;;;;;15.03;13.60;;;18.40;99.90;;;;;;4938518;29;20433;-59
2023/06/08 02:54:37;;;;;;;15.73;14.20;;;18.40;99.90;;;;;;4938268;29;20483;-59
2023/06/08 02:57:03;;;;;;;13.93;12.53;;;18.30;99.90;;;;;;4938219;29;20229;-59
2023/06/08 02:59:31;;;;;;;13.60;12.47;;;18.30;99.90;;;;;;4937801;29;20763;-59
2023/06/08 03:01:57;;;;;;;15.97;13.77;;;18.30;99.90;;;;;;4956377;28;20448;-59
2023/06/08 03:04:26;;;;;;;13.33;12.03;;;18.20;99.90;;;;;;4955922;28;20466;-59
2023/06/08 03:06:55;;;;;;;16.60;12.93;;;18.20;99.90;;;;;;4957131;28;20501;-59
2023/06/08 03:09:34;;;;;;;15.47;13.00;;;18.20;99.90;;;;;;4956435;28;20413;-59
2023/06/08 03:12:02;;;;;;;14.50;13.10;;;18.10;99.90;;;;;;4957122;28;20735;-59
2023/06/08 03:14:30;;;;;;;14.83;13.37;;;18.10;99.90;;;;;;4956403;28;20460;-59
2023/06/08 03:17:02;;;;;;;14.37;13.07;;;18.00;99.90;;;;;;4956080;29;20424;-59
2023/06/08 03:19:30;;;;;;;13.07;11.87;;;18.00;99.90;;;;;;4955746;28;20444;-59
2023/06/08 03:22:00;;;;;;;14.53;13.30;;;18.00;99.90;;;;;;4955727;29;20515;-59
2023/06/08 03:24:28;;;;;;;14.80;13.27;;;18.00;99.90;;;;;;4955152;29;20892;-59
2023/06/08 03:26:55;;;;;;;14.90;13.30;;;17.90;99.90;;;;;;4956736;28;20464;-59
2023/06/08 03:29:22;;;;;;;15.10;13.47;;;17.90;99.90;;;;;;4956069;28;20455;-59
2023/06/08 03:31:48;;;;;;;15.83;14.40;;;17.90;99.90;;;;;;4956602;29;20401;-59
2023/06/08 03:34:14;;;;;;;16.03;14.47;;;17.80;99.90;;;;;;4956033;28;20533;-59
2023/06/08 03:36:40;;;;;;;15.80;14.30;;;17.80;99.90;;;;;;4956244;28;20492;-59
2023/06/08 03:39:05;;;;;;;15.73;13.97;;;17.70;99.90;;;;;;4956446;29;20409;-59
2023/06/08 03:41:31;;;;;;;16.30;14.80;;;17.70;99.90;;;;;;4955342;29;20661;-59
2023/06/08 03:43:58;;;;;;;15.47;13.97;;;17.70;99.90;;;;;;4955732;28;20247;-59
2023/06/08 03:46:24;;;;;;;14.83;13.43;;;17.70;99.90;;;;;;4954955;28;20179;-59
2023/06/08 03:48:50;;;;;;;15.33;13.87;;;17.70;99.90;;;;;;4956493;29;20475;-59
2023/06/08 03:51:18;;;;;;;15.80;14.37;;;17.60;99.90;;;;;;4955953;28;20885;-59
2023/06/08 03:53:44;;;;;;;17.73;14.90;;;17.60;99.90;;;;;;4956248;28;20201;-59
2023/06/08 03:56:10;;;;;;;22.40;14.57;;;17.70;99.90;;;;;;4955195;28;20443;-59
2023/06/08 03:58:36;;;;;;;16.17;13.70;;;17.70;99.90;;;;;;4956148;29;20181;-59
2023/06/08 04:01:02;;;;;;;16.07;13.00;;;17.70;99.90;;;;;;4956200;28;20420;-59
2023/06/08 04:03:28;;;;;;;15.73;14.13;;;17.80;99.90;;;;;;4955585;28;20614;-59
2023/06/08 04:05:54;;;;;;;20.83;13.30;;;17.80;99.90;;;;;;4955159;29;20232;-59
2023/06/08 04:08:21;;;;;;;15.50;13.47;;;17.80;99.90;;;;;;4955394;28;20315;-59
2023/06/08 04:10:47;;;;;;;18.63;16.73;;;17.80;99.90;;;;;;4955937;28;20409;-59
2023/06/08 04:13:13;;;;;;;16.60;14.90;;;17.70;99.90;;;;;;4955510;29;20518;-58
2023/06/08 04:15:39;;;;;;;16.47;14.93;;;17.60;99.90;;;;;;4953918;28;20236;-58
2023/06/08 04:18:08;;;;;;;14.27;12.77;;;17.60;99.90;;;;;;4956119;28;20536;-59
2023/06/08 04:20:33;;;;;;;15.53;14.00;;;17.60;99.90;;;;;;4955106;29;20752;-58
2023/06/08 04:22:59;;;;;;;16.20;14.60;;;17.60;99.90;;;;;;4955953;29;20415;-59
2023/06/08 04:25:25;;;;;;;19.30;16.83;;;17.50;99.90;;;;;;4954220;28;20652;-59
2023/06/08 04:27:52;;;;;;;14.77;13.20;;;17.40;99.90;;;;;;4955627;28;20177;-58
2023/06/08 04:30:18;;;;;;;15.07;13.50;;;17.40;99.90;;;;;;4955033;28;20412;-58
2023/06/08 04:32:45;;;;;;;14.83;13.43;;;17.30;99.90;;;;;;4955181;28;20496;-59
2023/06/08 04:35:11;;;;;;;17.47;15.00;;;17.20;99.90;;;;;;4955774;28;20464;-59
2023/06/08 04:37:37;;;;;;;14.80;13.10;;;17.20;99.90;;;;;;4955447;28;20398;-59
2023/06/08 04:40:04;;;;;;;16.10;14.40;;;17.30;99.90;;;;;;4954757;29;20433;-59
2023/06/08 04:42:32;;;;;;;16.50;14.23;;;17.30;99.90;;;;;;4954744;28;20228;-59
2023/06/08 04:45:00;;;;;;;15.83;14.30;;;17.40;99.90;;;;;;4955317;28;20460;-59
2023/06/08 04:47:29;;;;;;;14.73;12.80;;;17.40;99.90;;;;;;4953545;29;20440;-59
2023/06/08 04:49:56;;;;;;;20.40;14.70;;;17.50;99.90;;;;;;4954699;28;20437;-59
2023/06/08 04:52:22;;;;;;;15.53;13.40;;;17.50;99.90;;;;;;4954265;28;20456;-59
2023/06/08 04:54:52;;;;;;;17.00;15.27;;;17.50;99.90;;;;;;4955103;28;20416;-59
2023/06/08 04:57:21;;;;;;;23.93;19.20;;;17.50;99.90;;;;;;4954417;28;20409;-58
2023/06/08 04:59:47;;;;;;;14.63;13.23;;;17.50;99.90;;;;;;4952559;29;20456;-59
2023/06/08 05:02:13;;;;;;;19.07;13.50;;;17.60;99.90;;;;;;4955064;28;20416;-59
2023/06/08 05:04:39;;;;;;;13.30;11.97;;;17.70;99.90;;;;;;4955048;29;20409;-59
2023/06/08 05:07:05;;;;;;;14.90;13.50;;;17.80;99.90;;;;;;4955078;28;20397;-59
2023/06/08 05:09:31;;;;;;;14.10;12.60;;;17.80;99.90;;;;;;4953083;29;20544;-58
2023/06/08 05:11:57;;;;;;;17.20;14.07;;;17.70;99.90;;;;;;4954650;29;20413;-59
2023/06/08 05:14:23;;;;;;;15.03;12.30;;;17.60;99.90;;;;;;4954120;29;20236;-59
2023/06/08 05:16:48;;;;;;;15.07;13.40;;;17.60;99.90;;;;;;4952991;28;20184;-59
2023/06/08 05:19:15;;;;;;;16.73;13.90;;;17.50;99.90;;;;;;4954786;29;20910;-59
2023/06/08 05:21:41;;;;;;;17.30;13.30;;;17.50;99.90;;;;;;4954750;28;20177;-59
2023/06/08 05:24:07;;;;;;;15.23;13.10;;;17.60;99.90;;;;;;4954744;28;20888;-59
2023/06/08 05:26:33;;;;;;;14.30;12.80;;;17.60;99.90;;;;;;4953825;28;20752;-59
2023/06/08 05:28:59;;;;;;;15.90;12.73;;;17.70;99.90;;;;;;4954968;28;20428;-59
2023/06/08 05:31:26;;;;;;;16.50;13.50;;;17.70;99.90;;;;;;4953326;28;20189;-58
2023/06/08 05:33:52;;;;;;;14.60;12.80;;;17.80;99.90;;;;;;4954446;28;20487;-59
2023/06/08 05:36:18;;;;;;;15.23;13.63;;;17.80;99.90;;;;;;4954025;28;20452;-58
2023/06/08 05:38:43;;;;;;;14.10;12.80;;;17.70;99.90;;;;;;4954242;29;20228;-59
2023/06/08 05:41:09;;;;;;;14.80;13.27;;;17.50;99.90;;;;;;4954609;28;20173;-59
2023/06/08 05:43:35;;;;;;;14.23;12.67;;;17.40;99.90;;;;;;4953599;28;20685;-59
2023/06/08 05:46:01;;;;;;;16.30;12.60;;;17.40;99.90;;;;;;4953518;29;20421;-59
2023/06/08 05:48:26;;;;;;;14.40;13.00;;;17.40;99.90;;;;;;4952486;29;20185;-59
2023/06/08 05:50:52;;;;;;;15.80;14.17;;;17.40;99.90;;;;;;4953552;28;20548;-59
2023/06/08 05:53:18;;;;;;;14.47;12.97;;;17.40;99.90;;;;;;4953895;28;20668;-59
2023/06/08 05:55:44;;;;;;;18.07;13.47;;;17.50;99.90;;;;;;4954702;28;20172;-59
2023/06/08 05:58:11;;;;;;;14.90;13.50;;;17.50;99.90;;;;;;4953754;28;20166;-59
2023/06/08 06:00:37;;;;;;;15.23;13.23;;;17.50;99.90;;;;;;4949941;29;20790;-59
2023/06/08 06:03:03;;;;;;;14.77;13.37;;;17.40;99.90;;;;;;4948489;29;20463;-59
2023/06/08 06:05:29;;;;;;;15.10;12.17;;;17.50;99.90;;;;;;4950221;28;20436;-59
2023/06/08 06:07:55;;;;;;;13.80;12.20;;;17.60;99.90;;;;;;4954240;28;20185;-59
2023/06/08 06:10:21;;;;;;;14.97;13.03;;;17.70;99.90;;;;;;4953344;29;20471;-59
2023/06/08 06:12:46;;;;;;;15.17;13.10;;;17.80;99.90;;;;;;4953155;29;20685;-60
2023/06/08 06:15:12;;;;;;;14.73;13.43;;;17.80;99.90;;;;;;4950337;29;20204;-59
2023/06/08 06:17:38;;;;;;;18.73;14.10;;;17.80;99.90;;;;;;4948514;28;20213;-59
2023/06/08 06:20:05;;;;;;;14.73;13.13;;;17.80;99.90;;;;;;4949371;29;20181;-59
2023/06/08 06:22:31;;;;;;;15.47;13.30;;;17.90;99.90;;;;;;4953473;29;20417;-59
2023/06/08 06:24:57;;;;;;;16.00;14.40;;;17.90;99.90;;;;;;4952447;29;20951;-59
2023/06/08 06:27:23;;;;;;;15.43;13.93;;;18.10;99.90;;;;;;4948158;29;20185;-59
2023/06/08 06:29:49;;;;;;;16.17;14.60;;;18.30;99.90;;;;;;4944812;29;20562;-59
2023/06/08 06:32:15;;;;;;;15.03;13.70;;;18.50;99.90;;;;;;4947253;28;20177;-59
2023/06/08 06:34:43;;;;;;;14.80;13.40;;;18.70;99.90;;;;;;4947019;28;20468;-59
2023/06/08 06:37:09;;;;;;;14.80;13.50;;;18.90;99.90;;;;;;4950333;28;20825;-59
2023/06/08 06:39:35;;;;;;;14.97;13.10;;;19.10;99.90;;;;;;4941890;28;20483;-59
2023/06/08 06:42:01;;;;;;;14.03;12.53;;;19.20;99.90;;;;;;4939597;29;20413;-59
2023/06/08 06:44:27;;;;;;;14.27;12.67;;;19.20;99.90;;;;;;4946852;28;20225;-59
2023/06/08 06:46:53;;;;;;;14.63;13.23;;;19.10;99.90;;;;;;4953838;29;20440;-59
2023/06/08 06:49:19;;;;;;;14.03;12.57;;;19.00;99.90;;;;;;4945362;29;20437;-59
2023/06/08 06:51:45;;;;;;;14.40;12.90;;;19.00;99.90;;;;;;4952307;28;20192;-59
2023/06/08 06:54:10;;;;;;;14.83;12.90;;;19.00;99.90;;;;;;4956611;29;20661;-59
2023/06/08 06:56:36;;;;;;;14.50;13.10;;;18.90;99.90;;;;;;4956115;29;20187;-59
2023/06/08 06:59:05;;;;;;;14.07;12.63;;;18.90;99.90;;;;;;4954765;28;20177;-64
2023/06/08 07:01:35;;;;;;;21.37;17.90;;;19.00;99.90;;;;;;4954634;28;20436;-63
2023/06/08 07:04:05;;;;;;;13.37;12.07;;;19.20;99.90;;;;;;4950250;29;20440;-64
2023/06/08 07:06:32;;;;;;;24.30;19.27;;;19.40;99.90;;;;;;4950794;29;20425;-64
2023/06/08 07:08:58;;;;;;;28.53;23.53;;;19.60;99.90;;;;;;4956333;28;20918;-65
2023/06/08 07:11:24;;;;;;;17.80;16.00;;;19.70;99.90;;;;;;4955761;29;20476;-64
2023/06/08 07:13:50;;;;;;;19.03;16.43;;;19.90;99.90;;;;;;4956625;28;20492;-65
2023/06/08 07:16:17;;;;;;;19.30;17.20;;;20.10;99.90;;;;;;4956738;28;20416;-65
2023/06/08 07:18:42;;;;;;;19.73;14.10;;;20.30;99.90;;;;;;4955757;29;20413;-64
2023/06/08 07:21:08;;;;;;;19.17;17.03;;;20.40;99.90;;;;;;4956706;29;20769;-65
2023/06/08 07:23:34;;;;;;;16.03;12.80;;;20.70;99.90;;;;;;4955571;29;20235;-64
2023/06/08 07:26:00;;;;;;;14.83;13.40;;;20.80;99.90;;;;;;4956489;28;20181;-64
2023/06/08 07:28:25;;;;;;;19.17;15.97;;;21.00;99.90;;;;;;4955619;28;20181;-62
2023/06/08 07:30:51;;;;;;;14.23;12.90;;;21.10;99.90;;;;;;4956317;28;20637;-65
2023/06/08 07:33:17;;;;;;;29.53;19.80;;;21.30;99.90;;;;;;4955429;28;20700;-64
2023/06/08 07:35:43;;;;;;;17.03;13.10;;;21.50;99.90;;;;;;4955444;28;20177;-64
2023/06/08 07:38:08;;;;;;;26.73;21.80;;;21.70;99.90;;;;;;4956403;28;20204;-63
2023/06/08 07:40:34;;;;;;;14.40;12.50;;;21.70;99.90;;;;;;4955174;28;20174;-64
2023/06/08 07:43:00;;;;;;;14.87;12.70;;;21.80;99.90;;;;;;4952712;29;20735;-63
2023/06/08 07:45:27;;;;;;;13.60;12.30;;;21.80;99.90;;;;;;4954069;28;20193;-64
2023/06/08 07:47:53;;;;;;;14.67;13.30;;;21.90;99.90;;;;;;4956379;28;20205;-63
2023/06/08 07:50:20;;;;;;;13.87;12.57;;;21.90;99.90;;;;;;4952673;28;20440;-64
2023/06/08 07:52:45;;;;;;;14.30;12.80;;;21.90;99.90;;;;;;4936630;29;20170;-64
2023/06/08 07:55:11;;;;;;;14.90;13.43;;;21.90;99.90;;;;;;4920169;29;20464;-66
2023/06/08 07:57:37;;;;;;;14.23;12.77;;;21.90;99.90;;;;;;4947524;29;20181;-65
2023/06/08 08:00:07;;;;;;;59.03;52.57;;;22.00;99.90;;;;;;4956222;29;20173;-64
2023/06/08 08:02:33;;;;;;;74.40;63.30;;;22.00;99.90;;;;;;4954689;28;20276;-64
2023/06/08 08:04:59;;;;;;;102.43;91.90;;;22.10;99.90;;;;;;4955031;29;20516;-65
2023/06/08 08:07:25;;;;;;;24.33;21.83;;;22.20;99.90;;;;;;4955778;28;20177;-62
2023/06/08 08:09:50;;;;;;;30.63;26.47;;;22.30;99.90;;;;;;4955125;29;20495;-65
2023/06/08 08:12:16;;;;;;;33.83;30.03;;;22.40;99.90;;;;;;4955142;28;20181;-65
2023/06/08 08:14:42;;;;;;;15.23;13.70;;;22.40;99.90;;;;;;4952976;29;20286;-66
2023/06/08 08:17:08;;;;;;;13.70;12.30;;;22.40;99.90;;;;;;4953914;29;20235;-63
2023/06/08 08:19:39;;;;;;;13.30;12.00;;;22.50;99.90;;;;;;4954902;29;20645;-63
2023/06/08 08:22:05;;;;;;;13.70;12.40;;;22.60;99.90;;;;;;4955736;28;20409;-63
2023/06/08 08:24:32;;;;;;;14.40;12.97;;;22.70;99.90;;;;;;4954225;29;20409;-63
2023/06/08 08:26:58;;;;;;;12.97;11.73;;;22.70;99.90;;;;;;4955979;29;20524;-63
2023/06/08 08:29:26;;;;;;;13.93;12.60;;;22.80;99.90;;;;;;4937738;29;20507;-63
2023/06/08 08:31:52;;;;;;;15.23;13.70;;;22.90;99.90;;;;;;4953510;29;20436;-63
2023/06/08 08:34:17;;;;;;;14.37;12.87;;;22.80;99.90;;;;;;4940685;28;20472;-63
2023/06/08 08:36:43;;;;;;;14.33;12.83;;;22.80;99.90;;;;;;4935776;29;20527;-63
2023/06/08 08:39:10;;;;;;;14.30;13.10;;;22.80;99.90;;;;;;4936259;29;20181;-63
2023/06/08 08:41:41;;;;;;;13.67;12.37;;;22.90;99.90;;;;;;4953148;29;20188;-64
2023/06/08 08:44:13;;;;;;;13.60;12.40;;;23.00;99.90;;;;;;4955346;28;20472;-65
2023/06/08 08:46:42;;;;;;;13.57;12.47;;;23.20;99.90;;;;;;4955180;28;20401;-67
2023/06/08 08:49:15;;;;;;;13.13;11.83;;;23.30;99.90;;;;;;4955528;28;20420;-68
2023/06/08 08:51:49;;;;;;;14.30;12.27;;;23.30;99.90;;;;;;4954815;29;20444;-64
2023/06/08 08:54:16;;;;;;;13.37;12.17;;;23.40;99.90;;;;;;4952570;28;20456;-63
2023/06/08 08:56:42;;;;;;;13.17;12.00;;;23.50;99.90;;;;;;4950948;29;21039;-63
2023/06/08 08:59:09;;;;;;;610.67;542.93;;;23.70;99.90;;;;;;4954835;28;20499;-63
2023/06/08 09:01:36;;;;;;;51.30;46.23;;;23.80;99.90;;;;;;4953924;28;20188;-62
2023/06/08 09:04:03;;;;;;;15.40;13.80;;;23.80;99.90;;;;;;4954206;28;20468;-62
2023/06/08 09:06:29;;;;;;;13.63;12.47;;;23.90;99.90;;;;;;4949886;28;20426;-62
2023/06/08 09:08:55;;;;;;;14.23;13.00;;;24.00;99.90;;;;;;4935792;29;20430;-63
2023/06/08 09:11:21;;;;;;;13.63;12.33;;;24.10;99.90;;;;;;4939459;29;20463;-62
2023/06/08 09:13:47;;;;;;;14.60;13.20;;;24.30;99.90;;;;;;4951779;29;20244;-62
2023/06/08 09:16:17;;;;;;;13.23;11.90;;;24.40;99.90;;;;;;4949211;28;20433;-62
2023/06/08 09:18:47;;;;;;;13.43;12.30;;;24.50;99.90;;;;;;4935069;29;20461;-62
2023/06/08 09:21:20;;;;;;;14.10;12.70;;;24.60;99.90;;;;;;4942944;29;20432;-62
2023/06/08 09:24:01;;;;;;;14.40;13.17;;;24.50;99.90;;;;;;4953931;28;20821;-62
2023/06/08 09:26:33;;;;;;;15.90;12.37;;;24.60;99.90;;;;;;4954335;29;20921;-62
2023/06/08 09:29:03;;;;;;;14.00;12.70;;;24.70;99.90;;;;;;4954631;28;20448;-62
2023/06/08 09:31:30;;;;;;;14.50;13.30;;;24.80;99.90;;;;;;4954095;29;20878;-62
2023/06/08 09:34:07;;;;;;;13.80;12.67;;;24.90;99.90;;;;;;4951215;28;20519;-62
2023/06/08 09:36:37;;;;;;;13.93;12.60;;;25.00;99.90;;;;;;4950679;29;20449;-63
2023/06/08 09:39:11;;;;;;;12.10;11.10;;;25.00;99.10;;;;;;4954215;28;20786;-62
2023/06/08 09:41:37;;;;;;;14.03;12.63;;;25.10;99.70;;;;;;4953045;29;20436;-62
2023/06/08 09:44:20;;;;;;;13.47;12.17;;;25.20;99.70;;;;;;4954319;28;20784;-63
2023/06/08 09:46:46;;;;;;;15.50;13.93;;;25.30;99.10;;;;;;4953824;28;20173;-62
2023/06/08 09:49:13;;;;;;;39.80;35.70;;;25.30;97.80;;;;;;4953279;29;20794;-62
2023/06/08 09:51:49;;;;;;;69.33;62.23;;;25.30;98.90;;;;;;4953637;28;20240;-62
2023/06/08 09:54:16;;;;;;;19.40;17.43;;;25.30;99.00;;;;;;4954248;28;20444;-62
2023/06/08 09:56:47;;;;;;;13.73;12.50;;;25.40;98.00;;;;;;4953878;28;20447;-63
2023/06/08 09:59:16;;;;;;;14.57;13.07;;;25.50;98.50;;;;;;4952829;28;20420;-59
2023/06/08 10:01:54;;;;;;;14.00;12.80;;;25.60;98.10;;;;;;4953082;28;20428;-58
2023/06/08 10:04:29;;;;;;;13.63;12.43;;;25.60;97.60;;;;;;4954611;28;20401;-58
2023/06/08 10:07:14;;;;;;;14.00;12.80;;;25.70;97.40;;;;;;4953801;28;20492;-59
2023/06/08 10:09:45;;;;;;;13.00;12.00;;;25.80;97.50;;;;;;4953779;28;20750;-59
2023/06/08 10:12:11;;;;;;;13.23;12.00;;;25.90;97.50;;;;;;4944903;28;20448;-59
2023/06/08 10:14:37;;;;;;;15.00;13.70;;;26.00;97.20;;;;;;4955973;28;20456;-59
2023/06/08 10:17:04;;;;;;;14.23;13.23;;;26.00;95.20;;;;;;4956626;28;20444;-59
2023/06/08 10:19:32;;;;;;;14.23;13.10;;;26.00;95.90;;;;;;4939324;29;20425;-59
2023/06/08 10:21:59;;;;;;;13.80;12.60;;;26.00;95.20;;;;;;4954695;29;20424;-61
2023/06/08 10:24:27;;;;;;;14.93;13.83;;;26.00;96.30;;;;;;4957904;28;20436;-60
2023/06/08 10:27:18;;;;;;;12.90;11.90;;;26.20;95.70;;;;;;4953685;28;20675;-59
2023/06/08 10:30:03;;;;;;;14.00;12.80;;;26.20;96.40;;;;;;4953481;29;20429;-59
2023/06/08 10:32:33;;;;;;;14.77;13.47;;;26.30;97.60;;;;;;4957718;28;20421;-59
2023/06/08 10:35:04;;;;;;;15.20;14.00;;;26.40;97.50;;;;;;4956553;28;20432;-59
2023/06/08 10:37:33;;;;;;;16.00;14.60;;;26.60;96.70;;;;;;4955590;29;20520;-59
2023/06/08 10:40:00;;;;;;;177.10;158.47;;;26.60;95.60;;;;;;4954913;28;20506;-59
2023/06/08 10:42:27;;;;;;;17.23;15.63;;;26.60;96.50;;;;;;4954227;29;20440;-59
2023/06/08 10:45:04;;;;;;;13.77;12.70;;;26.60;94.30;;;;;;4954867;28;20479;-59
2023/06/08 10:47:36;;;;;;;14.80;13.60;;;26.50;96.30;;;;;;4947642;28;20781;-60
2023/06/08 10:50:08;;;;;;;14.13;12.97;;;26.60;95.60;;;;;;4955067;28;20483;-60
2023/06/08 10:52:47;;;;;;;14.73;13.60;;;26.60;95.80;;;;;;4956943;28;20421;-59
2023/06/08 10:55:20;;;;;;;14.00;12.97;;;26.60;95.40;;;;;;4955285;29;20833;-59
2023/06/08 10:57:52;;;;;;;14.30;13.27;;;26.70;96.50;;;;;;4955162;29;20531;-59
2023/06/08 11:00:28;;;;;;;14.50;13.20;;;26.80;95.70;;;;;;4954548;28;20443;-59
2023/06/08 11:03:04;;;;;;;14.83;13.73;;;27.00;95.00;;;;;;4955355;28;20839;-59
2023/06/08 11:05:37;;;;;;;14.43;13.33;;;27.10;94.50;;;;;;4954431;28;20827;-59
2023/06/08 11:08:04;;;;;;;14.10;13.03;;;27.10;94.00;;;;;;4957389;29;20452;-59
2023/06/08 11:10:33;;;;;;;15.17;13.97;;;27.10;93.90;;;;;;4956027;28;20437;-59
2023/06/08 11:13:06;;;;;;;12.80;11.73;;;27.10;93.30;;;;;;4956007;28;20463;-59
2023/06/08 11:15:41;;;;;;;13.10;12.10;;;27.20;95.30;;;;;;4954738;28;20824;-59
2023/06/08 11:18:08;;;;;;;14.73;13.27;;;27.10;93.50;;;;;;4951349;29;20786;-61
2023/06/08 11:20:37;;;;;;;12.43;11.50;;;27.30;93.30;;;;;;4956788;28;20448;-59
2023/06/08 11:23:07;;;;;;;13.47;12.47;;;27.30;93.00;;;;;;4956839;28;20417;-59
2023/06/08 11:25:37;;;;;;;13.60;12.40;;;27.40;93.30;;;;;;4951497;28;20437;-59
2023/06/08 11:28:03;;;;;;;12.00;11.10;;;27.40;93.70;;;;;;4951739;28;20895;-59
2023/06/08 11:30:35;;;;;;;12.40;11.50;;;27.40;92.30;;;;;;4951808;28;20455;-59
2023/06/08 11:33:03;;;;;;;12.60;11.60;;;27.50;93.80;;;;;;4952609;28;20467;-59
2023/06/08 11:35:28;;;;;;;14.07;12.73;;;27.50;93.00;;;;;;4955531;29;20778;-60
2023/06/08 11:37:56;;;;;;;232.83;182.87;;;27.50;91.80;;;;;;4955823;29;20417;-59
2023/06/08 11:40:22;;;;;;;260.83;238.67;;;27.50;92.30;;;;;;4954354;29;20646;-59
2023/06/08 11:42:49;;;;;;;13.57;12.43;;;27.50;93.10;;;;;;4951682;28;20428;-49
2023/06/08 11:45:15;;;;;;;12.07;11.27;;;27.40;91.60;;;;;;4956373;28;20487;-52
2023/06/08 11:47:42;;;;;;;13.30;12.20;;;27.50;92.40;;;;;;4955741;28;20417;-50
2023/06/08 11:50:09;;;;;;;12.50;11.60;;;27.50;91.90;;;;;;4954510;28;20485;-51
2023/06/08 11:52:38;;;;;;;13.30;12.27;;;27.50;91.90;;;;;;4948570;29;20516;-52
2023/06/08 11:55:11;;;;;;;12.97;12.00;;;27.50;92.70;;;;;;4952243;28;20436;-54
2023/06/08 11:57:50;;;;;;;13.33;12.10;;;27.60;91.90;;;;;;4950752;28;20433;-52
2023/06/08 12:00:23;;;;;;;12.13;11.07;;;27.50;91.80;;;;;;4946533;29;20413;-53
2023/06/08 12:02:50;;;;;;;13.33;12.40;;;27.50;91.80;;;;;;4945990;29;20406;-50
2023/06/08 12:05:24;;;;;;;13.43;12.53;;;27.50;91.60;;;;;;4947271;29;20509;-54
2023/06/08 12:08:16;;;;;;;13.43;12.40;;;27.30;90.40;;;;;;4948476;29;20519;-49
2023/06/08 12:10:43;;;;;;;13.20;12.27;;;27.10;91.80;;;;;;4943156;29;20447;-54
2023/06/08 12:13:19;;;;;;;11.83;11.03;;;27.10;91.90;;;;;;4946601;29;20552;-47
2023/06/08 12:15:47;;;;;;;12.77;11.87;;;27.00;91.90;;;;;;4949050;28;20436;-50
2023/06/08 12:18:16;;;;;;;12.20;11.40;;;27.00;91.20;;;;;;4944888;29;20529;-49
2023/06/08 12:20:42;;;;;;;44.87;40.50;;;26.90;92.00;;;;;;4949453;29;20955;-62
2023/06/08 12:23:08;;;;;;;29.93;27.20;;;26.80;91.60;;;;;;4946323;29;20583;-62
2023/06/08 12:25:35;;;;;;;14.53;13.53;;;26.70;91.60;;;;;;4946459;29;20492;-63
2023/06/08 12:28:01;;;;;;;14.40;13.40;;;26.70;93.60;;;;;;4948898;28;20181;-62
2023/06/08 12:30:29;;;;;;;13.23;12.20;;;26.80;92.20;;;;;;4944451;29;20510;-61